createdAt,value
2023-02-27T00:00:44.062Z,87.00
2023-02-27T00:03:26.295Z,87.02
2023-02-27T00:05:56.452Z,86.90
2023-02-27T00:08:25.067Z,87.01
2023-02-27T00:10:53.398Z,86.88
2023-02-27T00:13:21.513Z,87.11
2023-02-27T00:15:50.581Z,87.10
2023-02-27T00:18:18.933Z,86.73
2023-02-27T00:20:48.600Z,86.89
2023-02-27T00:23:16.884Z,86.78
2023-02-27T00:25:45.203Z,87.04
2023-02-27T00:28:13.577Z,87.09
2023-02-27T00:30:41.887Z,87.10
2023-02-27T00:33:10.037Z,87.21
2023-02-27T00:35:38.324Z,87.11
2023-02-27T00:38:06.560Z,86.99
2023-02-27T00:40:37.945Z,87.11
2023-02-27T00:43:06.076Z,87.23
2023-02-27T00:45:34.366Z,87.40
2023-02-27T00:48:02.583Z,87.19
2023-02-27T00:50:30.751Z,87.29
2023-02-27T00:52:59.003Z,87.67
2023-02-27T00:55:27.509Z,87.47
2023-02-27T00:57:55.800Z,87.31
2023-02-27T01:00:24.598Z,87.68
2023-02-27T01:02:52.727Z,87.85
2023-02-27T01:05:21.480Z,87.90
2023-02-27T01:07:50.176Z,87.83
2023-02-27T01:10:18.387Z,88.23
2023-02-27T01:12:46.558Z,88.09
2023-02-27T01:15:14.888Z,88.09
2023-02-27T01:17:43.408Z,88.23
2023-02-27T01:20:13.466Z,88.24
2023-02-27T01:22:41.863Z,88.08
2023-02-27T01:25:10.408Z,88.35
2023-02-27T01:27:40.958Z,87.99
2023-02-27T01:30:11.696Z,87.29
2023-02-27T01:32:40.022Z,87.42
2023-02-27T01:35:08.714Z,87.31
2023-02-27T01:37:36.884Z,87.40
2023-02-27T01:40:08.022Z,87.68
2023-02-27T01:42:36.378Z,87.90
2023-02-27T01:45:32.281Z,87.44
2023-02-27T01:48:13.099Z,87.04
2023-02-27T01:50:48.682Z,87.55
2023-02-27T01:53:19.242Z,87.26
2023-02-27T01:55:49.691Z,87.10
2023-02-27T01:58:18.118Z,87.16
2023-02-27T02:00:46.703Z,87.58
2023-02-27T02:03:22.963Z,87.68
2023-02-27T02:05:55.640Z,87.51
2023-02-27T02:08:28.243Z,87.56
2023-02-27T02:10:58.412Z,87.80
2023-02-27T02:13:27.789Z,87.44
2023-02-27T02:16:16.106Z,87.59
2023-02-27T02:19:05.482Z,87.59
2023-02-27T02:22:04.802Z,87.47
2023-02-27T02:24:51.128Z,87.61
2023-02-27T02:27:36.099Z,87.95
2023-02-27T02:30:13.590Z,88.29
2023-02-27T02:33:02.089Z,88.19
2023-02-27T02:35:30.326Z,88.24
2023-02-27T02:38:23.633Z,88.32
2023-02-27T02:41:07.399Z,88.15
2023-02-27T02:44:20.651Z,87.90
2023-02-27T02:47:19.350Z,88.40
2023-02-27T02:50:19.990Z,88.16
2023-02-27T02:53:03.583Z,88.33
2023-02-27T02:55:38.509Z,88.78
2023-02-27T02:58:06.572Z,88.61
2023-02-27T03:01:10.263Z,88.63
2023-02-27T03:03:48.105Z,88.12
2023-02-27T03:06:27.905Z,88.16
2023-02-27T03:08:59.869Z,88.64
2023-02-27T03:11:34.701Z,88.14
2023-02-27T03:14:29.214Z,88.23
2023-02-27T03:17:02.463Z,87.49
2023-02-27T03:19:40.481Z,86.78
2023-02-27T03:22:17.417Z,87.34
2023-02-27T03:24:50.133Z,87.47
2023-02-27T03:27:19.923Z,87.69
2023-02-27T03:30:08.416Z,87.62
2023-02-27T03:32:53.257Z,87.67
2023-02-27T03:35:24.549Z,87.66
2023-02-27T03:37:58.240Z,87.18
2023-02-27T03:40:48.465Z,86.88
2023-02-27T03:44:01.246Z,87.51
2023-02-27T03:46:29.588Z,87.50
2023-02-27T03:48:58.814Z,86.77
2023-02-27T03:51:28.942Z,86.16
2023-02-27T03:54:04.213Z,86.27
2023-02-27T03:57:06.209Z,85.80
2023-02-27T03:59:38.194Z,85.97
2023-02-27T04:02:07.799Z,85.95
2023-02-27T04:04:36.373Z,86.07
2023-02-27T04:07:23.777Z,85.72
2023-02-27T04:10:07.296Z,85.58
2023-02-27T04:12:41.598Z,84.70
2023-02-27T04:15:12.688Z,84.31
2023-02-27T04:18:19.511Z,84.37
2023-02-27T04:21:06.295Z,84.51
2023-02-27T04:23:56.946Z,84.31
2023-02-27T04:26:39.538Z,84.20
2023-02-27T04:29:23.452Z,83.97
2023-02-27T04:31:57.691Z,84.07
2023-02-27T04:34:56.698Z,84.42
2023-02-27T04:37:38.284Z,84.35
2023-02-27T04:40:11.523Z,84.49
2023-02-27T04:42:46.900Z,84.64
2023-02-27T04:45:20.925Z,84.18
2023-02-27T04:48:04.856Z,84.30
2023-02-27T04:50:50.848Z,84.41
2023-02-27T04:53:25.085Z,83.97
2023-02-27T04:56:05.041Z,83.77
2023-02-27T04:58:47.333Z,83.43
2023-02-27T05:01:30.243Z,83.69
2023-02-27T05:04:00.502Z,83.73
2023-02-27T05:06:35.360Z,84.00
2023-02-27T05:09:22.689Z,84.31
2023-02-27T05:12:11.113Z,84.63
2023-02-27T05:14:46.494Z,84.02
2023-02-27T05:17:27.148Z,84.22
2023-02-27T05:19:56.247Z,84.01
2023-02-27T05:22:42.620Z,83.77
2023-02-27T05:25:37.537Z,83.63
2023-02-27T05:28:33.242Z,83.69
2023-02-27T05:31:21.050Z,83.74
2023-02-27T05:34:00.515Z,83.72
2023-02-27T05:36:35.008Z,83.89
2023-02-27T05:39:06.942Z,83.99
2023-02-27T05:41:42.233Z,84.05
2023-02-27T05:44:13.208Z,84.03
2023-02-27T05:46:57.919Z,83.71
2023-02-27T05:49:31.824Z,83.63
2023-02-27T05:52:03.222Z,83.23
2023-02-27T05:54:36.486Z,83.74
2023-02-27T05:57:10.518Z,85.52
2023-02-27T05:59:51.602Z,85.46
2023-02-27T06:02:20.133Z,83.09
2023-02-27T06:04:48.438Z,82.12
2023-02-27T06:07:16.933Z,82.17
2023-02-27T06:09:47.194Z,82.51
2023-02-27T06:12:19.376Z,81.74
2023-02-27T06:14:47.683Z,81.82
2023-02-27T06:17:16.343Z,80.98
2023-02-27T06:19:44.771Z,81.08
2023-02-27T06:22:13.139Z,80.88
2023-02-27T06:24:46.032Z,80.95
2023-02-27T06:27:14.522Z,80.54
2023-02-27T06:29:43.190Z,79.79
2023-02-27T06:32:14.341Z,79.98
2023-02-27T06:34:43.736Z,79.68
2023-02-27T06:37:14.720Z,79.83
2023-02-27T06:39:50.697Z,79.72
2023-02-27T06:42:23.876Z,79.15
2023-02-27T06:44:53.141Z,78.97
2023-02-27T06:47:21.260Z,78.46
2023-02-27T06:49:56.554Z,77.90
2023-02-27T06:52:24.909Z,78.03
2023-02-27T06:54:55.062Z,77.23
2023-02-27T06:57:26.967Z,77.82
2023-02-27T06:59:56.434Z,78.14
2023-02-27T07:02:26.335Z,77.46
2023-02-27T07:04:54.874Z,76.60
2023-02-27T07:07:35.227Z,76.07
2023-02-27T07:10:09.426Z,76.15
2023-02-27T07:12:38.520Z,75.82
2023-02-27T07:15:07.989Z,75.45
2023-02-27T07:17:36.412Z,74.27
2023-02-27T07:20:07.355Z,74.81
2023-02-27T07:22:35.944Z,74.74
2023-02-27T07:25:07.852Z,74.27
2023-02-27T07:27:36.421Z,73.98
2023-02-27T07:30:05.189Z,74.10
2023-02-27T07:32:33.564Z,73.54
2023-02-27T07:35:02.762Z,73.22
2023-02-27T07:37:30.934Z,72.28
2023-02-27T07:39:59.246Z,72.47
2023-02-27T07:42:27.595Z,71.43
2023-02-27T07:44:56.449Z,71.78
2023-02-27T07:47:24.692Z,71.99
2023-02-27T07:49:53.817Z,71.72
2023-02-27T07:52:25.593Z,71.41
2023-02-27T07:54:53.947Z,71.07
2023-02-27T07:57:22.334Z,71.39
2023-02-27T07:59:50.516Z,70.92
2023-02-27T08:02:19.210Z,71.60
2023-02-27T08:04:47.801Z,72.00
2023-02-27T08:07:17.490Z,72.53
2023-02-27T08:09:45.773Z,72.02
2023-02-27T08:12:17.904Z,71.44
2023-02-27T08:14:46.127Z,70.99
2023-02-27T08:17:15.284Z,72.36
2023-02-27T08:19:44.656Z,71.36
2023-02-27T08:22:13.526Z,71.15
2023-02-27T08:24:44.563Z,71.42
2023-02-27T08:27:12.771Z,70.85
2023-02-27T08:29:43.476Z,70.49
2023-02-27T08:32:14.370Z,70.07
2023-02-27T08:34:42.676Z,69.92
2023-02-27T08:37:11.130Z,68.38
2023-02-27T08:39:39.450Z,67.82
2023-02-27T08:42:08.970Z,68.28
2023-02-27T08:44:38.688Z,68.39
2023-02-27T08:47:09.580Z,66.78
2023-02-27T08:49:37.925Z,66.01
2023-02-27T08:52:06.084Z,66.60
2023-02-27T08:54:34.823Z,64.75
2023-02-27T08:57:04.211Z,63.86
2023-02-27T08:59:32.750Z,62.83
2023-02-27T09:02:00.999Z,62.52
2023-02-27T09:04:29.382Z,61.89
2023-02-27T09:06:58.212Z,61.63
2023-02-27T09:09:29.522Z,60.74
2023-02-27T09:11:58.407Z,62.39
2023-02-27T09:14:26.539Z,61.82
2023-02-27T09:16:55.701Z,60.71
2023-02-27T09:19:25.118Z,60.18
2023-02-27T09:21:53.352Z,61.21
2023-02-27T09:24:21.587Z,59.93
2023-02-27T09:26:52.782Z,59.03
2023-02-27T09:29:21.638Z,59.82
2023-02-27T09:31:50.044Z,59.85
2023-02-27T09:34:19.485Z,59.46
2023-02-27T09:36:48.580Z,60.08
2023-02-27T09:39:18.179Z,60.47
2023-02-27T09:42:01.507Z,61.11
2023-02-27T09:44:47.463Z,61.32
2023-02-27T09:47:54.216Z,62.10
2023-02-27T09:50:48.116Z,62.58
2023-02-27T09:53:30.081Z,63.38
2023-02-27T09:56:08.379Z,64.85
2023-02-27T09:58:39.386Z,65.24
2023-02-27T10:01:36.313Z,65.68
2023-02-27T10:04:21.310Z,67.08
2023-02-27T10:06:54.390Z,66.72
2023-02-27T10:09:22.822Z,66.89
2023-02-27T10:12:00.259Z,66.90
2023-02-27T10:14:33.656Z,66.44
2023-02-27T10:17:12.907Z,65.99
2023-02-27T10:19:45.433Z,66.30
2023-02-27T10:22:23.669Z,65.64
2023-02-27T10:25:00.593Z,64.82
2023-02-27T10:27:31.665Z,64.51
2023-02-27T10:30:29.748Z,64.04
2023-02-27T10:33:31.898Z,63.90
2023-02-27T10:36:02.812Z,62.49
2023-02-27T10:38:37.503Z,62.63
2023-02-27T10:41:08.397Z,62.13
2023-02-27T10:43:38.738Z,61.41
2023-02-27T10:46:22.083Z,60.63
2023-02-27T10:48:50.830Z,61.11
2023-02-27T10:51:24.727Z,61.65
2023-02-27T10:54:18.848Z,61.05
2023-02-27T10:56:55.750Z,61.46
2023-02-27T10:59:31.871Z,61.83
2023-02-27T11:02:06.897Z,61.84
2023-02-27T11:04:40.006Z,61.55
2023-02-27T11:07:18.731Z,62.98
2023-02-27T11:10:04.338Z,63.55
2023-02-27T11:13:05.952Z,64.21
2023-02-27T11:15:39.451Z,65.24
2023-02-27T11:18:30.790Z,64.82
2023-02-27T11:21:27.529Z,64.92
2023-02-27T11:24:07.721Z,64.04
2023-02-27T11:26:56.621Z,63.47
2023-02-27T11:29:29.480Z,63.35
2023-02-27T11:32:00.391Z,62.77
2023-02-27T11:34:33.003Z,63.37
2023-02-27T11:37:06.054Z,62.60
2023-02-27T11:39:51.039Z,62.81
2023-02-27T11:42:30.800Z,63.06
2023-02-27T11:45:08.403Z,63.48
2023-02-27T11:47:40.711Z,64.04
2023-02-27T11:50:47.131Z,63.31
2023-02-27T11:53:37.910Z,63.25
2023-02-27T11:56:13.329Z,64.21
2023-02-27T11:58:49.655Z,64.19
2023-02-27T12:01:31.382Z,64.74
2023-02-27T12:04:09.471Z,64.65
2023-02-27T12:06:46.922Z,64.98
2023-02-27T12:09:27.420Z,65.12
2023-02-27T12:11:56.873Z,64.97
2023-02-27T12:14:38.636Z,64.98
2023-02-27T12:17:27.553Z,64.61
2023-02-27T12:20:25.438Z,64.20
2023-02-27T12:22:54.943Z,64.69
2023-02-27T12:25:45.773Z,63.37
2023-02-27T12:28:40.105Z,63.17
2023-02-27T12:31:21.786Z,63.25
2023-02-27T12:34:01.124Z,63.60
2023-02-27T12:36:30.839Z,63.89
2023-02-27T12:38:59.981Z,62.37
2023-02-27T12:41:44.100Z,62.78
2023-02-27T12:44:28.499Z,61.85
2023-02-27T12:47:20.246Z,61.42
2023-02-27T12:50:06.810Z,60.69
2023-02-27T12:53:13.139Z,59.02
2023-02-27T12:55:47.433Z,58.21
2023-02-27T12:58:24.374Z,58.74
2023-02-27T13:01:01.210Z,58.94
2023-02-27T13:03:41.138Z,58.89
2023-02-27T13:06:15.415Z,58.36
2023-02-27T13:08:51.623Z,58.24
2023-02-27T13:11:47.159Z,58.64
2023-02-27T13:14:27.640Z,59.38
2023-02-27T13:17:18.788Z,59.05
2023-02-27T13:20:25.983Z,59.44
2023-02-27T13:22:56.703Z,59.90
2023-02-27T13:25:26.510Z,60.26
2023-02-27T13:28:03.977Z,60.96
2023-02-27T13:30:39.995Z,61.87
2023-02-27T13:33:14.071Z,62.42
2023-02-27T13:36:18.667Z,63.01
2023-02-27T13:38:52.333Z,62.74
2023-02-27T13:41:20.371Z,63.63
2023-02-27T13:43:52.744Z,64.04
2023-02-27T13:46:28.602Z,64.00
2023-02-27T13:49:06.003Z,62.94
2023-02-27T13:51:40.152Z,62.57
2023-02-27T13:54:14.535Z,62.32
2023-02-27T13:56:55.107Z,62.51
2023-02-27T13:59:40.734Z,61.64
2023-02-27T14:02:11.740Z,62.10
2023-02-27T14:04:43.237Z,61.46
2023-02-27T14:07:18.730Z,61.65
2023-02-27T14:09:50.519Z,62.24
2023-02-27T14:12:45.564Z,62.77
2023-02-27T14:15:23.931Z,62.02
2023-02-27T14:18:12.411Z,62.80
2023-02-27T14:20:42.305Z,63.32
2023-02-27T14:23:27.137Z,63.91
2023-02-27T14:26:02.222Z,64.68
2023-02-27T14:28:55.826Z,65.19
2023-02-27T14:31:27.041Z,66.06
2023-02-27T14:33:59.278Z,66.29
2023-02-27T14:36:39.725Z,64.89
2023-02-27T14:39:21.058Z,65.16
2023-02-27T14:42:07.807Z,65.47
2023-02-27T14:44:43.741Z,65.87
2023-02-27T14:47:19.517Z,64.87
2023-02-27T14:49:48.261Z,65.62
2023-02-27T14:52:30.013Z,67.16
2023-02-27T14:55:16.353Z,66.39
2023-02-27T14:57:58.445Z,67.36
2023-02-27T15:00:29.984Z,71.08
2023-02-27T15:02:59.930Z,68.88
2023-02-27T15:05:34.722Z,70.55
2023-02-27T15:08:03.709Z,66.94
2023-02-27T15:10:33.366Z,64.93
2023-02-27T15:13:02.901Z,62.19
2023-02-27T15:15:32.005Z,63.70
2023-02-27T15:18:01.254Z,64.00
2023-02-27T15:20:31.373Z,63.77
2023-02-27T15:23:01.896Z,64.49
2023-02-27T15:25:38.537Z,65.34
2023-02-27T15:28:19.064Z,65.84
2023-02-27T15:30:52.203Z,66.82
2023-02-27T15:33:28.048Z,67.52
2023-02-27T15:35:56.893Z,68.36
2023-02-27T15:38:32.728Z,69.47
2023-02-27T15:41:03.036Z,70.71
2023-02-27T15:43:31.932Z,70.73
2023-02-27T15:46:00.437Z,70.66
2023-02-27T15:48:29.978Z,70.97
2023-02-27T15:50:59.641Z,72.63
2023-02-27T15:53:30.817Z,72.51
2023-02-27T15:56:06.219Z,72.24
2023-02-27T15:58:37.280Z,73.11
2023-02-27T16:01:11.525Z,73.92
2023-02-27T16:03:51.684Z,74.10
2023-02-27T16:06:35.644Z,75.61
2023-02-27T16:09:41.592Z,76.40
2023-02-27T16:12:19.850Z,76.60
2023-02-27T16:14:49.040Z,76.36
2023-02-27T16:17:29.223Z,75.92
2023-02-27T16:20:01.935Z,76.42
2023-02-27T16:22:30.681Z,76.11
2023-02-27T16:25:11.567Z,75.75
2023-02-27T16:27:39.817Z,75.43
2023-02-27T16:30:12.602Z,75.66
2023-02-27T16:32:44.285Z,76.34
2023-02-27T16:35:23.649Z,76.69
2023-02-27T16:37:53.631Z,77.07
2023-02-27T16:40:25.045Z,77.52
2023-02-27T16:42:53.813Z,77.43
2023-02-27T16:45:28.043Z,77.75
2023-02-27T16:47:58.843Z,78.01
2023-02-27T16:50:31.844Z,78.46
2023-02-27T16:53:00.643Z,78.67
2023-02-27T16:55:28.989Z,78.65
2023-02-27T16:57:57.161Z,78.78
2023-02-27T17:00:25.317Z,78.87
2023-02-27T17:02:53.448Z,78.56
2023-02-27T17:05:23.262Z,78.57
2023-02-27T17:07:51.659Z,78.60
2023-02-27T17:10:22.430Z,78.47
2023-02-27T17:12:50.716Z,78.37
2023-02-27T17:15:19.901Z,78.07
2023-02-27T17:17:48.135Z,78.50
2023-02-27T17:20:16.340Z,78.50
2023-02-27T17:22:45.346Z,78.27
2023-02-27T17:25:15.022Z,78.74
2023-02-27T17:27:44.453Z,78.90
2023-02-27T17:30:14.165Z,79.13
2023-02-27T17:32:42.409Z,79.95
2023-02-27T17:35:11.240Z,79.88
2023-02-27T17:37:39.401Z,79.72
2023-02-27T17:40:08.980Z,79.51
2023-02-27T17:42:37.315Z,79.49
2023-02-27T17:45:08.151Z,79.93
2023-02-27T17:47:36.403Z,79.42
2023-02-27T17:50:05.698Z,78.81
2023-02-27T17:52:37.500Z,78.83
2023-02-27T17:55:08.649Z,79.02
2023-02-27T17:57:38.660Z,79.97
2023-02-27T18:00:10.219Z,80.60
2023-02-27T18:02:38.364Z,80.42
2023-02-27T18:05:07.281Z,80.67
2023-02-27T18:07:35.501Z,80.63
2023-02-27T18:10:05.843Z,80.46
2023-02-27T18:12:34.517Z,80.77
2023-02-27T18:15:04.062Z,80.72
2023-02-27T18:17:33.106Z,80.73
2023-02-27T18:20:01.497Z,80.83
2023-02-27T18:22:33.050Z,81.01
2023-02-27T18:25:01.288Z,80.83
2023-02-27T18:27:29.975Z,80.91
2023-02-27T18:29:59.338Z,80.95
2023-02-27T18:32:27.509Z,81.03
2023-02-27T18:34:55.828Z,81.50
2023-02-27T18:37:23.977Z,81.73
2023-02-27T18:39:52.197Z,82.20
2023-02-27T18:42:20.381Z,82.59
2023-02-27T18:44:48.786Z,82.48
2023-02-27T18:47:16.853Z,82.46
2023-02-27T18:49:46.505Z,82.36
2023-02-27T18:52:14.860Z,81.91
2023-02-27T18:54:43.874Z,81.95
2023-02-27T18:57:12.070Z,81.77
2023-02-27T18:59:41.596Z,82.18
2023-02-27T19:02:14.670Z,82.29
2023-02-27T19:04:42.837Z,82.06
2023-02-27T19:07:11.287Z,82.05
2023-02-27T19:09:39.493Z,82.17
2023-02-27T19:12:10.845Z,82.30
2023-02-27T19:14:39.005Z,82.17
2023-02-27T19:17:07.602Z,81.50
2023-02-27T19:19:35.928Z,80.83
2023-02-27T19:22:04.452Z,80.62
2023-02-27T19:24:32.716Z,81.09
2023-02-27T19:27:01.017Z,81.14
2023-02-27T19:29:29.154Z,81.40
2023-02-27T19:31:57.425Z,81.53
2023-02-27T19:34:25.631Z,81.98
2023-02-27T19:36:54.020Z,81.73
2023-02-27T19:39:25.124Z,81.64
2023-02-27T19:41:55.451Z,81.05
2023-02-27T19:44:23.918Z,80.95
2023-02-27T19:46:53.145Z,81.21
2023-02-27T19:49:23.974Z,81.34
2023-02-27T19:51:52.280Z,81.83
2023-02-27T19:54:20.473Z,81.46
2023-02-27T19:56:48.647Z,81.10
2023-02-27T19:59:17.953Z,81.34
2023-02-27T20:01:46.002Z,81.36
2023-02-27T20:04:14.554Z,81.13
2023-02-27T20:06:46.143Z,80.71
2023-02-27T20:09:16.769Z,80.88
2023-02-27T20:11:45.911Z,81.09
2023-02-27T20:14:15.705Z,80.88
2023-02-27T20:16:45.010Z,80.39
2023-02-27T20:19:16.093Z,80.06
2023-02-27T20:21:45.405Z,79.90
2023-02-27T20:24:14.853Z,80.07
2023-02-27T20:26:47.692Z,80.75
2023-02-27T20:29:19.289Z,80.68
2023-02-27T20:31:49.407Z,80.36
2023-02-27T20:34:25.930Z,80.29
2023-02-27T20:36:55.543Z,79.99
2023-02-27T20:39:24.627Z,80.07
2023-02-27T20:41:52.935Z,80.27
2023-02-27T20:44:21.298Z,80.33
2023-02-27T20:46:49.808Z,80.22
2023-02-27T20:49:18.387Z,80.17
2023-02-27T20:51:46.583Z,80.21
2023-02-27T20:54:20.434Z,80.48
2023-02-27T20:56:52.227Z,80.53
2023-02-27T20:59:23.533Z,80.30
2023-02-27T21:01:52.695Z,79.90
2023-02-27T21:04:24.863Z,79.65
2023-02-27T21:06:54.792Z,79.81
2023-02-27T21:09:23.069Z,79.79
2023-02-27T21:11:51.223Z,79.86
2023-02-27T21:14:19.637Z,80.33
2023-02-27T21:16:47.670Z,80.63
2023-02-27T21:19:16.156Z,81.18
2023-02-27T21:21:44.269Z,81.26
2023-02-27T21:24:12.447Z,81.30
2023-02-27T21:26:41.297Z,81.02
2023-02-27T21:29:18.387Z,81.02
2023-02-27T21:31:49.172Z,81.38
2023-02-27T21:34:23.514Z,81.80
2023-02-27T21:36:52.723Z,81.58
2023-02-27T21:39:26.337Z,81.31
2023-02-27T21:41:55.090Z,81.63
2023-02-27T21:44:26.905Z,81.25
2023-02-27T21:46:55.108Z,80.99
2023-02-27T21:49:26.268Z,81.22
2023-02-27T21:51:55.157Z,81.25
2023-02-27T21:54:23.817Z,81.53
2023-02-27T21:56:52.074Z,81.71
2023-02-27T21:59:21.670Z,81.01
2023-02-27T22:01:50.018Z,80.48
2023-02-27T22:04:19.955Z,80.52
2023-02-27T22:06:50.350Z,80.87
2023-02-27T22:09:19.699Z,80.83
2023-02-27T22:11:48.407Z,81.28
2023-02-27T22:14:17.327Z,81.40
2023-02-27T22:16:45.496Z,81.54
2023-02-27T22:19:20.010Z,81.58
2023-02-27T22:21:49.047Z,81.82
2023-02-27T22:24:17.860Z,81.94
2023-02-27T22:26:47.917Z,81.72
2023-02-27T22:29:17.310Z,81.90
2023-02-27T22:31:46.135Z,81.83
2023-02-27T22:34:18.671Z,81.67
2023-02-27T22:36:52.827Z,82.07
2023-02-27T22:39:21.720Z,82.21
2023-02-27T22:41:50.212Z,82.05
2023-02-27T22:44:18.472Z,81.99
2023-02-27T22:46:48.893Z,81.80
2023-02-27T22:49:20.160Z,81.74
2023-02-27T22:51:51.041Z,81.66
2023-02-27T22:54:22.101Z,81.59
2023-02-27T22:56:52.068Z,81.32
2023-02-27T22:59:21.463Z,81.46
2023-02-27T23:01:50.794Z,81.49
2023-02-27T23:04:19.007Z,82.05
2023-02-27T23:06:47.215Z,82.17
2023-02-27T23:09:19.149Z,82.14
2023-02-27T23:11:47.850Z,81.77
2023-02-27T23:14:16.647Z,81.73
2023-02-27T23:16:45.990Z,81.51
2023-02-27T23:19:19.999Z,81.26
2023-02-27T23:21:48.479Z,81.11
2023-02-27T23:24:18.792Z,80.99
2023-02-27T23:26:49.286Z,81.28
2023-02-27T23:29:18.701Z,81.86
2023-02-27T23:31:47.047Z,81.92
2023-02-27T23:34:15.215Z,81.88
2023-02-27T23:36:43.454Z,82.18
2023-02-27T23:39:11.642Z,82.50
2023-02-27T23:41:40.025Z,82.61
2023-02-27T23:44:08.161Z,82.49
2023-02-27T23:46:36.419Z,82.76
2023-02-27T23:49:04.659Z,82.40
2023-02-27T23:51:33.531Z,82.36
2023-02-27T23:54:02.154Z,82.44
2023-02-27T23:56:31.170Z,82.50
2023-02-27T23:59:05.446Z,82.39
